Time;durP1;ratioP1;P1;durP2;ratioP2;P2;SDS_P1;SDS_P2;PMS_P1;PMS_P2;Temp;Humidity;BMP_temperature;BMP_pressure;BME280_temperature;BME280_humidity;BME280_pressure;Samples;Min_cycle;Max_cycle;Signal;HPM_P1;HPM_P2
2023/09/03 00:00:32;;;;;;;8.27;4.53;;;18.10;76.90;;;;;;5032804;28;20035;-69
2023/09/03 00:02:58;;;;;;;9.10;4.43;;;18.10;76.80;;;;;;5037503;28;20036;-68
2023/09/03 00:05:24;;;;;;;9.02;4.30;;;18.10;76.90;;;;;;5033572;28;20048;-69
2023/09/03 00:07:50;;;;;;;7.18;4.38;;;18.10;76.80;;;;;;5039271;28;20032;-69
2023/09/03 00:10:16;;;;;;;8.43;4.72;;;18.10;76.80;;;;;;5037446;28;20518;-69
2023/09/03 00:12:42;;;;;;;8.32;4.85;;;18.10;76.80;;;;;;5035097;28;20113;-68
2023/09/03 00:15:09;;;;;;;8.70;4.72;;;18.00;76.80;;;;;;5034814;28;20041;-69
2023/09/03 00:17:34;;;;;;;8.30;4.85;;;18.00;76.90;;;;;;5046626;28;20028;-69
2023/09/03 00:20:00;;;;;;;8.73;5.03;;;18.00;76.90;;;;;;5033323;28;20137;-69
2023/09/03 00:22:26;;;;;;;7.80;4.13;;;18.00;76.90;;;;;;5034965;28;20033;-69
2023/09/03 00:24:51;;;;;;;8.13;5.05;;;17.90;76.90;;;;;;5042334;28;20026;-69
2023/09/03 00:27:17;;;;;;;8.45;4.72;;;17.90;76.90;;;;;;5040042;28;20017;-69
2023/09/03 00:29:43;;;;;;;7.88;4.32;;;17.90;76.90;;;;;;5061104;28;20060;-69
2023/09/03 00:32:08;;;;;;;7.97;4.82;;;17.90;76.90;;;;;;5042962;28;20014;-69
2023/09/03 00:34:34;;;;;;;8.25;4.78;;;17.90;76.80;;;;;;5036990;28;20312;-69
2023/09/03 00:37:00;;;;;;;8.27;4.80;;;17.90;76.70;;;;;;5038508;28;20025;-69
2023/09/03 00:39:26;;;;;;;7.90;4.80;;;17.90;76.70;;;;;;5035455;28;20026;-69
2023/09/03 00:41:51;;;;;;;8.02;4.80;;;18.00;76.80;;;;;;5022507;28;20053;-69
2023/09/03 00:44:17;;;;;;;9.25;4.63;;;18.00;76.80;;;;;;5067556;28;20029;-68
2023/09/03 00:46:44;;;;;;;7.80;4.60;;;18.00;76.70;;;;;;5044324;28;20032;-69
2023/09/03 00:49:19;;;;;;;8.82;4.75;;;18.00;76.70;;;;;;5033763;28;20045;-69
2023/09/03 00:51:45;;;;;;;7.80;4.55;;;18.00;76.70;;;;;;5017865;28;20057;-69
2023/09/03 00:54:12;;;;;;;8.43;4.72;;;17.90;76.80;;;;;;5035041;28;20026;-69
2023/09/03 00:56:38;;;;;;;8.98;4.65;;;17.90;76.90;;;;;;5026777;28;20025;-69
2023/09/03 00:59:06;;;;;;;8.88;4.97;;;17.90;76.90;;;;;;5036089;28;20087;-68
2023/09/03 01:01:32;;;;;;;7.78;4.65;;;17.90;76.90;;;;;;5011848;28;20112;-69
2023/09/03 01:03:58;;;;;;;10.13;4.75;;;17.90;77.10;;;;;;5039517;28;20029;-69
2023/09/03 01:06:25;;;;;;;8.55;4.85;;;17.90;77.10;;;;;;5037204;28;20026;-69
2023/09/03 01:08:52;;;;;;;8.38;4.95;;;17.80;77.00;;;;;;5035711;28;20028;-69
2023/09/03 01:11:31;;;;;;;8.70;4.85;;;17.80;77.10;;;;;;5017635;28;20048;-69
2023/09/03 01:14:03;;;;;;;7.95;4.30;;;17.80;77.10;;;;;;5034568;28;20440;-69
2023/09/03 01:16:33;;;;;;;;;;;17.80;77.20;;;;;;5040759;28;20054;-69
2023/09/03 01:19:05;;;;;;;7.80;4.30;;;17.80;77.20;;;;;;5035233;28;20250;-69
2023/09/03 01:21:57;;;;;;;9.50;5.10;;;17.70;77.30;;;;;;5036929;28;20040;-69
2023/09/03 01:24:41;;;;;;;;;;;17.70;77.30;;;;;;5060284;28;20044;-69
2023/09/03 01:27:26;;;;;;;8.63;4.22;;;17.70;77.40;;;;;;5034845;28;19908;-69
2023/09/03 01:29:53;;;;;;;8.40;4.45;;;17.70;77.60;;;;;;5034822;28;20109;-68
2023/09/03 01:32:20;;;;;;;9.13;4.72;;;17.70;77.70;;;;;;5022877;28;20351;-69
2023/09/03 01:34:47;;;;;;;7.80;4.80;;;17.70;77.70;;;;;;5034317;28;20025;-69
2023/09/03 01:37:14;;;;;;;7.88;4.25;;;17.70;77.90;;;;;;5031908;28;20080;-68
2023/09/03 01:39:39;;;;;;;8.13;5.10;;;17.70;77.90;;;;;;5035973;28;20109;-69
2023/09/03 01:42:05;;;;;;;8.38;4.35;;;17.70;78.00;;;;;;5034192;28;20108;-69
2023/09/03 01:44:31;;;;;;;8.52;4.53;;;17.70;78.00;;;;;;5033043;28;20458;-69
2023/09/03 01:47:16;;;;;;;7.97;4.88;;;17.70;78.10;;;;;;5034934;28;20017;-68
2023/09/03 01:49:58;;;;;;;7.93;4.45;;;17.70;78.00;;;;;;5019550;28;20033;-69
2023/09/03 01:52:40;;;;;;;8.25;4.65;;;17.70;78.00;;;;;;5024289;28;20046;-69
2023/09/03 01:55:10;;;;;;;8.57;4.90;;;17.70;78.10;;;;;;5065379;28;20056;-69
2023/09/03 01:57:47;;;;;;;8.85;4.72;;;17.70;78.20;;;;;;5034571;28;20049;-69
2023/09/03 02:00:15;;;;;;;8.07;4.72;;;17.70;78.20;;;;;;5034038;28;20339;-69
2023/09/03 02:02:43;;;;;;;9.25;5.03;;;17.70;78.30;;;;;;5034828;28;20454;-69
2023/09/03 02:05:09;;;;;;;9.85;5.28;;;17.70;78.30;;;;;;5015588;28;20025;-69
2023/09/03 02:07:35;;;;;;;9.73;5.22;;;17.70;78.40;;;;;;5032000;28;20519;-69
2023/09/03 02:10:01;;;;;;;9.43;5.63;;;17.70;78.40;;;;;;5033965;28;20458;-69
2023/09/03 02:12:26;;;;;;;8.50;5.25;;;17.70;78.40;;;;;;5033395;28;20025;-69
2023/09/03 02:14:53;;;;;;;8.68;5.50;;;17.70;78.50;;;;;;5034029;28;20056;-69
2023/09/03 02:17:19;;;;;;;10.35;6.28;;;17.70;78.50;;;;;;5031946;28;20053;-68
2023/09/03 02:19:52;;;;;;;8.02;5.53;;;17.60;78.40;;;;;;5034212;28;20095;-69
2023/09/03 02:22:19;;;;;;;10.32;5.75;;;17.60;78.40;;;;;;5033079;28;20083;-69
2023/09/03 02:24:45;;;;;;;12.35;5.97;;;17.70;78.50;;;;;;5034795;28;20087;-69
2023/09/03 02:27:11;;;;;;;10.18;6.20;;;17.60;78.40;;;;;;5034236;28;20017;-68
2023/09/03 02:29:38;;;;;;;10.63;6.35;;;17.60;78.60;;;;;;5016363;28;20049;-69
2023/09/03 02:32:05;;;;;;;9.40;5.50;;;17.60;78.60;;;;;;5034029;28;20044;-69
2023/09/03 02:34:31;;;;;;;9.90;6.25;;;17.50;78.70;;;;;;5032690;28;20038;-69
2023/09/03 02:36:57;;;;;;;9.02;5.65;;;17.50;78.70;;;;;;5032062;28;20029;-69
2023/09/03 02:39:23;;;;;;;8.73;5.65;;;17.50;78.90;;;;;;5030290;28;20131;-69
2023/09/03 02:41:49;;;;;;;9.73;6.13;;;17.50;78.90;;;;;;5004041;28;20051;-69
2023/09/03 02:44:14;;;;;;;9.30;5.65;;;17.50;78.90;;;;;;5034695;28;20505;-69
2023/09/03 02:46:40;;;;;;;10.93;5.65;;;17.50;79.00;;;;;;5028245;28;20108;-69
2023/09/03 02:49:06;;;;;;;9.68;6.80;;;17.40;79.00;;;;;;5031611;28;20021;-69
2023/09/03 02:51:32;;;;;;;9.63;6.25;;;17.40;79.00;;;;;;5029315;28;20096;-69
2023/09/03 02:53:58;;;;;;;10.38;6.30;;;17.40;79.10;;;;;;5028974;28;20034;-68
2023/09/03 02:56:24;;;;;;;9.68;6.30;;;17.40;79.10;;;;;;5033688;28;20048;-69
2023/09/03 02:58:50;;;;;;;9.80;6.53;;;17.30;79.10;;;;;;5041968;28;20029;-69
2023/09/03 03:01:18;;;;;;;10.38;6.63;;;17.30;79.20;;;;;;5032828;28;20022;-69
2023/09/03 03:03:44;;;;;;;10.82;7.05;;;17.30;79.30;;;;;;5015964;28;20033;-69
2023/09/03 03:06:10;;;;;;;10.00;6.75;;;17.30;79.40;;;;;;5033858;28;20013;-69
2023/09/03 03:08:36;;;;;;;9.35;6.75;;;17.30;79.40;;;;;;5033474;28;20044;-69
2023/09/03 03:11:08;;;;;;;9.88;6.85;;;17.30;79.50;;;;;;5032761;28;20068;-68
2023/09/03 03:13:38;;;;;;;10.77;6.47;;;17.30;79.50;;;;;;5031386;28;20037;-69
2023/09/03 03:16:10;;;;;;;10.20;6.70;;;17.30;79.50;;;;;;5032402;28;20037;-69
2023/09/03 03:18:38;;;;;;;10.07;6.38;;;17.30;79.50;;;;;;5010752;28;20036;-69
2023/09/03 03:21:19;;;;;;;10.82;7.30;;;17.20;79.50;;;;;;5032141;28;20034;-69
2023/09/03 03:23:47;;;;;;;9.15;5.75;;;17.20;79.50;;;;;;5016222;28;20060;-69
2023/09/03 03:26:14;;;;;;;10.75;6.90;;;17.20;79.50;;;;;;5033084;28;20025;-69
2023/09/03 03:28:40;;;;;;;11.57;6.82;;;17.20;79.60;;;;;;5021542;28;20029;-69
2023/09/03 03:31:12;;;;;;;11.80;7.20;;;17.20;79.60;;;;;;5033060;28;20025;-68
2023/09/03 03:33:42;;;;;;;9.35;6.20;;;17.10;79.60;;;;;;5024241;28;20087;-68
2023/09/03 03:36:14;;;;;;;9.25;6.18;;;17.10;79.60;;;;;;5044951;28;20466;-68
2023/09/03 03:38:40;;;;;;;9.98;6.50;;;17.10;79.70;;;;;;5027175;28;20048;-69
2023/09/03 03:41:12;;;;;;;9.85;6.63;;;17.10;79.70;;;;;;5036207;28;20029;-68
2023/09/03 03:43:50;;;;;;;9.88;6.53;;;17.10;79.70;;;;;;5035376;28;20026;-69
2023/09/03 03:46:20;;;;;;;9.63;6.38;;;17.00;80.40;;;;;;5036707;28;20034;-68
2023/09/03 03:48:49;;;;;;;11.52;7.03;;;17.00;79.70;;;;;;5026995;28;20017;-68
2023/09/03 03:51:17;;;;;;;9.80;6.68;;;17.00;79.70;;;;;;5032795;28;20049;-69
2023/09/03 03:53:43;;;;;;;10.82;6.60;;;17.00;79.70;;;;;;5024422;28;20036;-68
2023/09/03 03:56:10;;;;;;;11.93;6.90;;;16.90;79.70;;;;;;5033494;28;20068;-68
2023/09/03 03:58:38;;;;;;;10.52;6.68;;;16.90;79.70;;;;;;5014928;28;20025;-69
2023/09/03 04:01:17;;;;;;;9.43;6.50;;;16.90;79.70;;;;;;5019150;28;20033;-69
2023/09/03 04:03:45;;;;;;;9.95;6.15;;;16.90;79.70;;;;;;5062578;28;20038;-69
2023/09/03 04:06:11;;;;;;;9.80;6.18;;;16.90;79.70;;;;;;5030570;28;20036;-69
2023/09/03 04:08:38;;;;;;;11.90;6.80;;;16.90;79.80;;;;;;5025508;28;20029;-69
2023/09/03 04:11:09;;;;;;;10.77;6.93;;;16.90;79.80;;;;;;5028741;28;20064;-69
2023/09/03 04:13:36;;;;;;;9.93;6.32;;;16.90;79.80;;;;;;5032741;28;21397;-69
2023/09/03 04:16:10;;;;;;;11.85;6.78;;;16.80;79.80;;;;;;5045562;28;20072;-68
2023/09/03 04:18:37;;;;;;;11.75;7.75;;;16.80;79.80;;;;;;5042656;28;20017;-69
2023/09/03 04:21:03;;;;;;;10.40;6.53;;;16.80;79.80;;;;;;5036064;28;20112;-68
2023/09/03 04:23:29;;;;;;;10.18;6.97;;;16.80;79.80;;;;;;5016853;28;20029;-68
2023/09/03 04:25:57;;;;;;;10.85;6.97;;;16.80;79.90;;;;;;5047182;28;20046;-69
2023/09/03 04:28:25;;;;;;;10.98;7.43;;;16.80;79.90;;;;;;5040368;28;20394;-68
2023/09/03 04:30:56;;;;;;;11.35;7.22;;;16.80;79.90;;;;;;5035464;28;20060;-68
2023/09/03 04:33:23;;;;;;;10.00;6.45;;;16.80;79.90;;;;;;5036664;28;20461;-68
2023/09/03 04:35:57;;;;;;;10.43;7.03;;;16.70;79.90;;;;;;5031092;28;20075;-68
2023/09/03 04:38:24;;;;;;;10.77;6.93;;;16.70;79.90;;;;;;5031365;28;20044;-68
2023/09/03 04:40:49;;;;;;;10.32;6.22;;;16.70;79.90;;;;;;5050697;28;20451;-69
2023/09/03 04:43:17;;;;;;;11.10;6.75;;;16.70;80.00;;;;;;5019378;28;20026;-68
2023/09/03 04:45:48;;;;;;;12.60;6.90;;;16.70;80.00;;;;;;5034090;28;20079;-68
2023/09/03 04:48:18;;;;;;;10.82;7.07;;;16.70;80.00;;;;;;5030330;28;20024;-68
2023/09/03 04:50:44;;;;;;;13.13;7.40;;;16.70;80.70;;;;;;5022479;28;20030;-68
2023/09/03 04:53:12;;;;;;;11.80;7.18;;;16.70;80.10;;;;;;5036926;28;20040;-68
2023/09/03 04:55:39;;;;;;;13.18;7.45;;;16.70;80.10;;;;;;5018486;28;20033;-68
2023/09/03 04:58:05;;;;;;;11.32;6.97;;;16.70;80.10;;;;;;5031546;28;20261;-68
2023/09/03 05:00:33;;;;;;;14.10;7.03;;;16.70;80.10;;;;;;5063507;28;20340;-68
2023/09/03 05:02:59;;;;;;;12.10;7.53;;;16.70;80.10;;;;;;5033421;28;20171;-68
2023/09/03 05:05:25;;;;;;;10.73;7.10;;;16.70;80.10;;;;;;5032436;28;20128;-68
2023/09/03 05:07:51;;;;;;;9.98;6.68;;;16.70;80.10;;;;;;5032641;28;20034;-69
2023/09/03 05:10:18;;;;;;;10.85;6.95;;;16.70;80.10;;;;;;5039622;28;20029;-69
2023/09/03 05:12:44;;;;;;;10.27;7.10;;;16.70;80.10;;;;;;5036035;28;20049;-69
2023/09/03 05:15:11;;;;;;;12.45;7.53;;;16.70;80.20;;;;;;5034904;28;20103;-68
2023/09/03 05:17:39;;;;;;;12.15;7.22;;;16.70;80.20;;;;;;5032681;28;20025;-68
2023/09/03 05:20:06;;;;;;;10.40;7.50;;;16.70;80.30;;;;;;5016495;28;20477;-68
2023/09/03 05:22:32;;;;;;;11.25;7.38;;;16.70;80.20;;;;;;5068150;28;20057;-68
2023/09/03 05:24:58;;;;;;;12.45;7.18;;;16.70;80.30;;;;;;5029811;28;20379;-68
2023/09/03 05:27:24;;;;;;;13.27;7.95;;;16.70;80.30;;;;;;5034296;28;20120;-69
2023/09/03 05:29:51;;;;;;;11.15;7.90;;;16.80;80.30;;;;;;5028435;28;20018;-68
2023/09/03 05:32:18;;;;;;;11.02;7.65;;;16.80;80.30;;;;;;5034571;28;20116;-68
2023/09/03 05:34:44;;;;;;;13.20;7.80;;;16.80;80.30;;;;;;5034892;28;20072;-68
2023/09/03 05:37:10;;;;;;;11.15;7.75;;;16.80;80.40;;;;;;5032477;28;20121;-68
2023/09/03 05:39:36;;;;;;;12.18;8.13;;;16.80;80.30;;;;;;5024943;28;20425;-68
2023/09/03 05:42:02;;;;;;;12.20;7.40;;;16.90;80.40;;;;;;5034595;28;20116;-68
2023/09/03 05:44:27;;;;;;;12.60;8.73;;;16.90;80.40;;;;;;5034356;28;20124;-68
2023/09/03 05:46:54;;;;;;;11.95;8.20;;;16.90;80.40;;;;;;5028307;28;20116;-68
2023/09/03 05:49:19;;;;;;;12.77;8.13;;;16.90;80.40;;;;;;5032321;28;20502;-69
2023/09/03 05:51:46;;;;;;;11.13;8.30;;;16.90;80.40;;;;;;5025528;28;20038;-68
2023/09/03 05:54:13;;;;;;;13.63;8.50;;;17.00;80.40;;;;;;5027571;28;20036;-68
2023/09/03 05:56:39;;;;;;;11.50;8.45;;;17.00;80.40;;;;;;5034537;28;20335;-68
2023/09/03 05:59:05;;;;;;;14.25;8.75;;;17.10;80.40;;;;;;5031054;28;20282;-69
2023/09/03 06:01:33;;;;;;;12.80;8.50;;;17.10;80.40;;;;;;5039756;28;20028;-69
2023/09/03 06:04:02;;;;;;;12.70;8.25;;;17.10;80.40;;;;;;5037604;28;20030;-68
2023/09/03 06:06:29;;;;;;;12.57;7.78;;;17.20;80.40;;;;;;5029807;28;20141;-69
2023/09/03 06:08:55;;;;;;;12.50;8.63;;;17.20;80.40;;;;;;5038736;28;20083;-70
2023/09/03 06:11:21;;;;;;;11.30;7.75;;;17.30;80.20;;;;;;5034863;28;20021;-70
2023/09/03 06:13:47;;;;;;;12.60;8.70;;;17.30;80.10;;;;;;5034050;28;20442;-70
2023/09/03 06:16:13;;;;;;;11.90;7.70;;;17.40;80.10;;;;;;5033851;28;20105;-70
2023/09/03 06:18:38;;;;;;;12.25;8.13;;;17.50;80.10;;;;;;5034663;28;20038;-70
2023/09/03 06:21:04;;;;;;;12.18;8.35;;;17.50;80.00;;;;;;5032397;28;20025;-70
2023/09/03 06:23:30;;;;;;;14.82;9.45;;;17.60;79.90;;;;;;5031592;28;20194;-69
2023/09/03 06:25:56;;;;;;;14.30;7.95;;;17.60;79.60;;;;;;5028340;28;20025;-69
2023/09/03 06:28:22;;;;;;;14.00;9.00;;;17.70;79.60;;;;;;5033202;28;20033;-70
2023/09/03 06:30:48;;;;;;;11.63;7.80;;;17.90;79.30;;;;;;5026840;28;20061;-70
2023/09/03 06:33:14;;;;;;;12.48;8.90;;;18.10;78.90;;;;;;5032899;28;20119;-68
2023/09/03 06:35:39;;;;;;;13.85;8.38;;;18.40;78.40;;;;;;5063392;28;20485;-68
2023/09/03 06:38:06;;;;;;;11.48;7.88;;;18.60;77.70;;;;;;5033584;28;20339;-69
2023/09/03 06:40:32;;;;;;;13.55;8.60;;;18.70;77.40;;;;;;5026341;28;20030;-70
2023/09/03 06:42:57;;;;;;;11.93;7.55;;;18.70;77.40;;;;;;5035359;28;20027;-70
2023/09/03 06:45:23;;;;;;;12.90;8.57;;;18.70;77.40;;;;;;5034780;28;20064;-70
2023/09/03 06:47:49;;;;;;;12.77;7.90;;;18.70;77.40;;;;;;5029706;28;20057;-70
2023/09/03 06:50:15;;;;;;;11.02;7.90;;;18.70;77.40;;;;;;5028008;28;20025;-70
2023/09/03 06:52:42;;;;;;;10.85;7.68;;;18.70;77.50;;;;;;5028585;28;20050;-70
2023/09/03 06:55:08;;;;;;;10.90;7.07;;;18.70;77.60;;;;;;5032644;28;20562;-70
2023/09/03 06:57:33;;;;;;;11.35;7.03;;;18.70;77.50;;;;;;5035025;28;20462;-70
2023/09/03 07:00:00;;;;;;;11.27;7.03;;;18.70;77.50;;;;;;5029689;28;20037;-69
2023/09/03 07:02:26;;;;;;;11.45;7.70;;;18.70;77.50;;;;;;5021536;28;20040;-71
2023/09/03 07:04:53;;;;;;;16.48;7.63;;;18.70;77.40;;;;;;5030025;28;20504;-70
2023/09/03 07:07:19;;;;;;;11.82;7.43;;;18.80;77.40;;;;;;5034252;28;20465;-70
2023/09/03 07:09:44;;;;;;;11.35;7.25;;;18.80;77.30;;;;;;5044322;28;20355;-70
2023/09/03 07:12:10;;;;;;;12.10;7.38;;;18.80;77.30;;;;;;5029641;28;20037;-70
2023/09/03 07:14:36;;;;;;;11.52;7.35;;;18.90;77.30;;;;;;5033761;28;20109;-70
2023/09/03 07:17:04;;;;;;;10.85;7.70;;;18.90;77.20;;;;;;5037399;28;20033;-69
2023/09/03 07:19:30;;;;;;;9.32;6.65;;;19.00;77.00;;;;;;5037398;28;20029;-69
2023/09/03 07:21:56;;;;;;;10.70;7.10;;;19.10;77.00;;;;;;5032594;28;20522;-69
2023/09/03 07:24:22;;;;;;;11.68;7.45;;;19.10;76.90;;;;;;5037556;28;20116;-70
2023/09/03 07:26:47;;;;;;;10.90;6.20;;;19.10;76.90;;;;;;5035747;28;20359;-69
2023/09/03 07:29:14;;;;;;;10.13;6.00;;;19.20;76.90;;;;;;5036639;28;20423;-69
2023/09/03 07:31:43;;;;;;;10.57;6.65;;;19.20;76.90;;;;;;5031855;28;20032;-69
2023/09/03 07:34:15;;;;;;;10.27;6.88;;;19.20;76.90;;;;;;5035595;28;20121;-69
2023/09/03 07:36:42;;;;;;;12.45;7.28;;;19.20;76.80;;;;;;5035841;28;20025;-69
2023/09/03 07:39:09;;;;;;;10.63;6.47;;;19.30;76.80;;;;;;5036521;28;20034;-69
2023/09/03 07:41:36;;;;;;;10.45;6.88;;;19.40;76.70;;;;;;5036594;28;20480;-69
2023/09/03 07:44:02;;;;;;;10.82;7.50;;;19.50;76.60;;;;;;5034459;28;20031;-69
2023/09/03 07:46:28;;;;;;;9.75;6.55;;;19.60;76.40;;;;;;5037449;28;20029;-70
2023/09/03 07:48:54;;;;;;;10.77;6.50;;;19.60;76.30;;;;;;5036066;28;20032;-70
2023/09/03 07:51:21;;;;;;;11.13;7.30;;;19.60;76.20;;;;;;5033972;28;20133;-69
2023/09/03 07:53:47;;;;;;;10.73;7.07;;;19.80;76.30;;;;;;5024885;28;20030;-70
2023/09/03 07:56:16;;;;;;;10.20;6.25;;;19.90;75.90;;;;;;5031295;28;20022;-70
2023/09/03 07:58:43;;;;;;;10.68;6.07;;;20.10;75.70;;;;;;5032592;28;20017;-70
2023/09/03 08:01:14;;;;;;;9.40;5.78;;;20.20;75.40;;;;;;5033696;28;20022;-70
2023/09/03 08:03:42;;;;;;;9.77;6.30;;;20.40;75.10;;;;;;5035107;28;20065;-70
2023/09/03 08:06:09;;;;;;;11.15;5.97;;;20.50;74.70;;;;;;5036711;28;20021;-70
2023/09/03 08:08:36;;;;;;;10.23;6.63;;;20.70;74.50;;;;;;5019290;28;20025;-70
2023/09/03 08:11:02;;;;;;;9.57;6.20;;;20.90;74.20;;;;;;5035569;28;20147;-70
2023/09/03 08:13:28;;;;;;;10.10;5.95;;;21.00;73.90;;;;;;5035538;28;20038;-70
2023/09/03 08:15:54;;;;;;;10.32;6.35;;;21.10;73.60;;;;;;5033876;28;20060;-69
2023/09/03 08:18:21;;;;;;;9.10;5.32;;;21.10;73.40;;;;;;5034097;28;20116;-70
2023/09/03 08:20:49;;;;;;;8.45;5.15;;;21.30;73.30;;;;;;5037459;28;20029;-70
2023/09/03 08:23:14;;;;;;;7.18;4.28;;;21.50;72.90;;;;;;5033659;28;20022;-70
2023/09/03 08:25:44;;;;;;;8.38;4.88;;;21.70;72.30;;;;;;5029484;28;20084;-70
2023/09/03 08:28:10;;;;;;;8.48;5.03;;;21.90;71.90;;;;;;5035474;28;20104;-70
2023/09/03 08:30:37;;;;;;;9.98;5.65;;;22.00;71.30;;;;;;5037136;28;20036;-70
2023/09/03 08:33:03;;;;;;;10.50;6.20;;;22.20;71.00;;;;;;5030967;28;20335;-69
2023/09/03 08:35:30;;;;;;;11.25;7.43;;;22.40;70.60;;;;;;5037286;28;20030;-70
2023/09/03 08:37:56;;;;;;;9.20;5.95;;;22.60;70.10;;;;;;5030560;28;20371;-70
2023/09/03 08:40:23;;;;;;;9.25;5.70;;;22.70;69.50;;;;;;5029986;28;20021;-70
2023/09/03 08:42:49;;;;;;;10.35;6.25;;;22.80;69.10;;;;;;5027706;28;20611;-71
2023/09/03 08:45:19;;;;;;;11.30;6.75;;;22.90;68.70;;;;;;5031726;28;20088;-70
2023/09/03 08:47:45;;;;;;;10.85;5.97;;;22.90;68.20;;;;;;5024757;28;20028;-70
2023/09/03 08:50:12;;;;;;;8.90;5.70;;;23.00;67.90;;;;;;5027005;28;20096;-70
2023/09/03 08:53:22;;;;;;;9.75;5.88;;;23.10;67.50;;;;;;5028984;28;20084;-70
2023/09/03 08:55:48;;;;;;;7.75;4.65;;;23.10;67.10;;;;;;5043506;28;20038;-69
2023/09/03 08:58:15;;;;;;;8.98;4.65;;;23.20;67.40;;;;;;5035330;28;20021;-70
2023/09/03 09:00:42;;;;;;;9.57;5.63;;;23.30;67.10;;;;;;5031622;28;20351;-70
2023/09/03 09:03:13;;;;;;;9.27;5.72;;;23.50;66.80;;;;;;5034091;28;20040;-71
2023/09/03 09:05:42;;;;;;;8.25;5.30;;;23.60;66.30;;;;;;5030549;28;20033;-71
2023/09/03 09:08:08;;;;;;;8.27;4.90;;;23.70;65.90;;;;;;5029655;28;20095;-71
2023/09/03 09:10:37;;;;;;;8.75;4.38;;;23.70;65.90;;;;;;5026295;28;20060;-71
2023/09/03 09:13:06;;;;;;;6.57;4.03;;;23.80;65.80;;;;;;5057733;28;20026;-71
2023/09/03 09:15:35;;;;;;;7.18;4.03;;;23.90;65.80;;;;;;5031596;28;20043;-70
2023/09/03 09:18:01;;;;;;;9.25;4.68;;;24.00;65.50;;;;;;5029540;28;20029;-71
2023/09/03 09:20:28;;;;;;;9.05;4.47;;;24.00;65.20;;;;;;5029988;28;20082;-71
2023/09/03 09:22:55;;;;;;;7.75;4.40;;;24.00;65.10;;;;;;5030311;28;20083;-70
2023/09/03 09:25:25;;;;;;;9.23;4.30;;;23.90;65.00;;;;;;5030275;28;20481;-70
2023/09/03 09:27:56;;;;;;;7.70;3.50;;;23.90;65.00;;;;;;5042765;28;20018;-71
2023/09/03 09:30:25;;;;;;;6.40;3.30;;;23.80;65.10;;;;;;5029679;28;20040;-71
2023/09/03 09:33:07;;;;;;;6.97;3.22;;;23.80;64.90;;;;;;5055702;28;20017;-71
2023/09/03 09:35:34;;;;;;;7.20;3.67;;;23.80;64.20;;;;;;5027109;28;20433;-70
2023/09/03 09:38:07;;;;;;;8.20;3.90;;;23.90;64.30;;;;;;5043676;28;20029;-71
2023/09/03 09:40:37;;;;;;;7.05;3.35;;;23.90;63.90;;;;;;5055716;28;20025;-71
2023/09/03 09:43:06;;;;;;;6.75;3.72;;;24.00;64.00;;;;;;5024978;28;20040;-71
2023/09/03 09:45:32;;;;;;;7.20;3.92;;;24.10;63.40;;;;;;5029509;28;20064;-70
2023/09/03 09:48:09;;;;;;;8.65;3.58;;;24.10;63.00;;;;;;5027308;28;20021;-70
2023/09/03 09:50:37;;;;;;;5.65;3.10;;;24.10;62.70;;;;;;5029611;28;20061;-71
2023/09/03 09:53:03;;;;;;;7.40;3.30;;;24.20;62.30;;;;;;5028840;28;20056;-70
2023/09/03 09:55:32;;;;;;;6.25;2.92;;;24.20;62.00;;;;;;5026000;28;20061;-70
2023/09/03 09:58:01;;;;;;;6.53;3.20;;;24.20;62.00;;;;;;5023811;28;20048;-70
2023/09/03 10:00:34;;;;;;;5.68;3.33;;;24.20;61.80;;;;;;5021877;28;20068;-70
2023/09/03 10:03:00;;;;;;;7.80;3.78;;;24.30;61.40;;;;;;5020180;28;20045;-70
2023/09/03 10:05:26;;;;;;;6.35;2.65;;;24.30;61.00;;;;;;5021854;28;20037;-70
2023/09/03 10:07:53;;;;;;;5.90;2.75;;;24.50;60.70;;;;;;5024786;28;20109;-69
2023/09/03 10:10:20;;;;;;;5.30;2.50;;;24.60;60.00;;;;;;5017317;28;20116;-69
2023/09/03 10:12:46;;;;;;;6.15;2.88;;;24.80;59.70;;;;;;5027854;28;20026;-70
2023/09/03 10:15:15;;;;;;;5.95;3.00;;;24.90;59.30;;;;;;5028754;28;20048;-70
2023/09/03 10:17:44;;;;;;;6.85;3.42;;;24.90;58.80;;;;;;5054908;28;20045;-70
2023/09/03 10:20:15;;;;;;;5.95;2.65;;;24.80;58.30;;;;;;5027130;28;20087;-70
2023/09/03 10:22:44;;;;;;;7.55;3.17;;;24.70;58.40;;;;;;5027500;28;20067;-70
2023/09/03 10:25:15;;;;;;;5.68;2.65;;;24.60;58.60;;;;;;5057162;28;20060;-71
2023/09/03 10:27:47;;;;;;;5.78;2.63;;;24.50;58.10;;;;;;5022972;28;20425;-70
2023/09/03 10:30:17;;;;;;;6.85;3.22;;;24.50;58.30;;;;;;5019895;28;20431;-70
2023/09/03 10:32:44;;;;;;;5.93;2.50;;;24.50;58.20;;;;;;5022200;28;20428;-69
2023/09/03 10:35:11;;;;;;;6.80;2.30;;;24.50;58.40;;;;;;5022785;28;20033;-70
2023/09/03 10:37:41;;;;;;;7.10;2.70;;;24.50;58.70;;;;;;5049965;28;20040;-70
2023/09/03 10:40:24;;;;;;;4.70;2.28;;;24.60;58.30;;;;;;5014100;28;20121;-70
2023/09/03 10:43:18;;;;;;;5.68;2.25;;;24.60;58.00;;;;;;5056781;28;20030;-72
2023/09/03 10:46:04;;;;;;;4.05;1.90;;;24.70;58.20;;;;;;5036135;28;20036;-70
2023/09/03 10:48:30;;;;;;;4.22;1.92;;;24.60;57.70;;;;;;5023983;28;20180;-71
2023/09/03 10:50:56;;;;;;;4.72;2.22;;;24.60;58.10;;;;;;5011286;28;20437;-69
2023/09/03 10:53:35;;;;;;;5.13;2.20;;;24.60;58.30;;;;;;5034734;28;20037;-70
2023/09/03 10:56:12;;;;;;;5.28;2.47;;;24.60;58.70;;;;;;5027410;28;20037;-71
2023/09/03 10:58:59;;;;;;;4.63;2.00;;;24.70;57.50;;;;;;5022754;28;20040;-69
2023/09/03 11:01:31;;;;;;;4.80;2.15;;;24.80;57.50;;;;;;5035385;28;20065;-70
2023/09/03 11:03:58;;;;;;;4.07;2.08;;;24.80;57.20;;;;;;5057780;28;20021;-70
2023/09/03 11:06:31;;;;;;;5.72;2.33;;;24.80;57.10;;;;;;5016338;28;20044;-70
2023/09/03 11:09:08;;;;;;;5.57;2.60;;;24.80;57.00;;;;;;5028715;28;20025;-70
2023/09/03 11:11:35;;;;;;;5.15;2.38;;;24.80;56.80;;;;;;5024238;28;20026;-70
2023/09/03 11:14:02;;;;;;;7.18;2.40;;;24.80;56.90;;;;;;5023294;28;20053;-71
2023/09/03 11:16:32;;;;;;;5.15;1.73;;;24.70;56.90;;;;;;5019076;28;20053;-70
2023/09/03 11:18:58;;;;;;;4.93;2.00;;;24.70;56.70;;;;;;5037994;28;20042;-71
2023/09/03 11:21:27;;;;;;;4.53;1.73;;;24.70;56.60;;;;;;5021264;28;20116;-70
2023/09/03 11:24:03;;;;;;;4.57;1.90;;;24.70;56.10;;;;;;5039866;28;20038;-70
2023/09/03 11:26:34;;;;;;;5.10;2.10;;;24.70;56.20;;;;;;5021661;28;20102;-70
2023/09/03 11:29:01;;;;;;;3.85;1.92;;;24.80;55.90;;;;;;5036008;28;20029;-71
2023/09/03 11:31:27;;;;;;;3.40;1.40;;;24.70;56.00;;;;;;5044866;28;20024;-71
2023/09/03 11:33:55;;;;;;;3.88;1.67;;;24.80;56.30;;;;;;5031608;28;20022;-70
2023/09/03 11:36:24;;;;;;;5.90;1.88;;;24.90;56.20;;;;;;5001517;28;20037;-71
2023/09/03 11:38:56;;;;;;;4.10;1.90;;;24.90;56.00;;;;;;5029220;28;20044;-70
2023/09/03 11:41:22;;;;;;;3.63;1.50;;;24.90;55.90;;;;;;5038808;28;20048;-70
2023/09/03 11:43:48;;;;;;;4.65;1.60;;;24.90;55.90;;;;;;5029297;28;20395;-71
2023/09/03 11:46:16;;;;;;;2.60;1.45;;;24.90;55.60;;;;;;5038329;28;20107;-71
2023/09/03 11:48:49;;;;;;;3.08;1.33;;;24.90;55.30;;;;;;5039189;28;20048;-70
2023/09/03 11:51:27;;;;;;;3.10;1.33;;;24.90;55.10;;;;;;5030735;28;20069;-70
2023/09/03 11:53:53;;;;;;;3.17;1.45;;;24.90;55.40;;;;;;5026237;28;20045;-70
2023/09/03 11:56:21;;;;;;;3.63;1.50;;;25.00;55.50;;;;;;5033738;28;20041;-70
2023/09/03 11:58:55;;;;;;;2.92;1.20;;;25.00;55.20;;;;;;5033043;28;20031;-70
2023/09/03 12:01:21;;;;;;;2.70;1.25;;;25.00;54.80;;;;;;5033425;28;20427;-71
2023/09/03 12:03:47;;;;;;;2.05;1.10;;;24.90;54.50;;;;;;5035556;28;20044;-70
2023/09/03 12:06:13;;;;;;;2.63;1.42;;;24.90;54.40;;;;;;5037480;28;20041;-70
2023/09/03 12:08:38;;;;;;;3.78;1.35;;;25.00;54.30;;;;;;5037943;28;20079;-71
2023/09/03 12:11:05;;;;;;;2.95;1.40;;;25.00;53.80;;;;;;5037465;28;20112;-70
2023/09/03 12:13:35;;;;;;;3.30;1.27;;;24.90;53.70;;;;;;5035128;28;20351;-70
2023/09/03 12:16:07;;;;;;;1.95;1.20;;;24.80;53.80;;;;;;5036134;28;20342;-70
2023/09/03 12:18:34;;;;;;;3.25;1.40;;;24.70;53.80;;;;;;5036123;28;20056;-70
2023/09/03 12:21:00;;;;;;;2.35;1.40;;;24.70;54.00;;;;;;5035951;28;20427;-71
2023/09/03 12:23:26;;;;;;;4.93;1.60;;;24.60;54.20;;;;;;5035403;28;20092;-70
2023/09/03 12:25:52;;;;;;;3.75;1.50;;;24.50;53.80;;;;;;5050611;28;20060;-70
2023/09/03 12:28:31;;;;;;;3.22;1.38;;;24.50;53.70;;;;;;5039865;28;20022;-70
2023/09/03 12:31:01;;;;;;;2.83;1.30;;;24.40;53.50;;;;;;5036882;28;20033;-70
2023/09/03 12:33:44;;;;;;;3.03;1.30;;;24.30;53.00;;;;;;5037871;28;20026;-69
2023/09/03 12:36:12;;;;;;;2.25;1.10;;;24.20;52.30;;;;;;5036184;28;20026;-71
2023/09/03 12:39:03;;;;;;;2.10;1.05;;;24.20;52.80;;;;;;5042730;28;20031;-70
2023/09/03 12:41:32;;;;;;;3.38;1.40;;;24.10;52.90;;;;;;5027594;28;20120;-70
2023/09/03 12:44:08;;;;;;;2.47;1.10;;;24.10;53.20;;;;;;5035028;28;20100;-71
2023/09/03 12:46:38;;;;;;;2.03;1.17;;;24.10;52.90;;;;;;5034349;28;20017;-70
2023/09/03 12:49:04;;;;;;;3.65;1.50;;;24.10;53.10;;;;;;5038040;28;20049;-71